Latest Coastal Weather Observations for Double Island Point

IDQ60701

Issued at 7:45 pm EST Tuesday 31 March 2015 (issued every 10 minutes, with the page automatically refreshed every 10 minutes)

About coastal observations | Map of coastal stations | Coastal observations for QLD | Marine services | Other Formats
Station Details ID: 040068 Name: DOUBLE ISLAND POINT LIGHTHOUSE Lat: -25.93 Lon: 153.19 Height: 95.64 m
Data from the previous 72 hours. | See also: Recent months at Double Island Point
Date/Time
EST
Temp

°C
Wind Pressure Rain
since 9am
mm
Weather Cloud Vis
km
Sea
Height
m
Swell
Dir
 
Speed
knots
Gust
knots
hPa Trend Height
m
Period
s
Dir
31/07:30pm 23.6 ESE 20 24 1019.5 - 0.0 - - - - - - -
31/07:00pm 23.5 ESE 21 24 1019.0 - 0.0 - - - - - - -
31/06:30pm 23.5 ESE 22 26 1019.1 - 0.0 - - - - - - -
31/06:00pm 23.7 ESE 21 26 1018.4 - 0.0 - - - - - - -
31/05:30pm 23.9 SE 18 21 1018.7 - 0.0 - - - - - - -
31/05:00pm 23.9 ESE 19 24 1018.1 - 0.0 - - - - - - -
31/04:30pm 23.9 SE 21 24 1018.2 - 0.0 - - - - - - -
31/04:00pm 24.1 SE 19 21 1018.2 - 0.0 - - - - - - -
31/03:30pm 24.3 ESE 16 19 1018.3 - 0.0 - - - - - - -
31/03:00pm 24.7 ESE 15 17 1018.7 - 0.0 - - - - - - -
31/02:30pm 25.1 ESE 16 19 1018.8 - 0.0 - - - - - - -
31/02:00pm 25.5 ESE 17 21 1019.0 - 0.0 - - - - - - -
31/01:30pm 25.4 ESE 17 20 1019.2 - 0.0 - - - - - - -
31/01:00pm 25.4 ESE 16 21 1019.6 - 0.0 - - - - - - -
31/12:30pm 25.8 ESE 14 17 1019.9 - 0.0 - - - - - - -
31/12:00pm 25.7 ESE 15 18 1020.4 - 0.0 - - - - - - -
31/11:30am 25.3 ESE 16 19 1020.6 - 0.0 - - - - - - -
31/11:00am 25.8 E 16 19 1021.0 - 0.0 - - - - - - -
31/10:30am 25.1 E 17 19 1021.5 - 0.0 - - - - - - -
31/10:00am 25.2 E 19 23 1021.1 - 0.0 - - - - - - -
31/09:30am 24.2 ESE 18 22 1021.2 - 0.0 - - - - - - -
31/09:00am 24.3 ESE 16 19 1021.4 - 0.0 - - - - - - -
31/08:30am 24.1 ESE 15 19 1021.4 - 0.0 - - - - - - -
31/08:00am 23.8 ESE 16 21 1021.1 - 0.0 - - - - - - -
31/07:30am 23.5 ESE 16 19 1020.8 - 0.0 - - - - - - -
31/07:00am 23.4 ESE 17 20 1020.4 - 0.0 - - - - - - -
31/06:30am 23.3 ESE 16 20 1020.0 - 0.0 - - - - - - -
31/06:00am 23.2 ESE 17 21 1019.8 - 0.0 - - - - - - -
31/05:30am 23.2 ESE 17 20 1019.7 - 0.0 - - - - - - -
31/05:00am 23.2 E 17 20 1019.6 - 0.0 - - - - - - -
31/04:30am 23.2 ESE 17 21 1019.7 - 0.0 - - - - - - -
31/04:00am 23.3 ESE 16 19 1019.7 - 0.0 - - - - - - -
31/03:30am 23.1 ESE 17 19 1019.6 - 0.0 - - - - - - -
31/03:00am 23.1 ESE 16 19 1019.7 - 0.0 - - - - - - -
31/02:30am 23.2 ESE 17 20 1020.0 - 0.0 - - - - - - -
31/02:00am 23.2 ESE 15 18 1020.1 - 0.0 - - - - - - -
31/01:30am 23.3 ESE 15 20 1020.3 - 0.0 - - - - - - -
31/01:00am 23.3 ESE 15 17 1020.8 - 0.0 - - - - - - -
31/12:30am 23.4 ESE 15 19 1021.0 - 0.0 - - - - - - -
 
Date/Time
EST
Temp

°C
Wind Pressure Rain
since 9am
mm
Weather Cloud Vis
km
Sea
Height
m
Swell
Dir
 
Speed
knots
Gust
knots
hPa Trend Height
m
Period
s
Dir
30/11:30pm 23.4 ESE 17 20 1021.1 - 0.0 - - - - - - -
30/11:00pm 23.5 ESE 17 19 1021.5 - 0.0 - - - - - - -
30/10:30pm 23.6 ESE 17 19 1021.6 - 0.0 - - - - - - -
30/10:00pm 23.7 ESE 16 21 1021.9 - 0.0 - - - - - - -
30/09:30pm 23.6 ESE 13 16 1022.2 - 0.0 - - - - - - -
30/09:00pm 23.9 ESE 16 19 1022.1 - 0.0 - - - - - - -
30/08:30pm 23.8 ESE 14 17 1022.0 - 0.0 - - - - - - -
30/08:00pm 23.6 ESE 13 15 1021.9 - 0.0 - - - - - - -
30/07:30pm 23.8 ESE 13 17 1021.7 - 0.0 - - - - - - -
30/07:00pm 23.8 ESE 13 16 1021.5 - 0.0 - - - - - - -
30/06:30pm 23.6 ESE 14 16 1020.9 - 0.0 - - - - - - -
30/06:00pm 23.6 ESE 13 17 1020.4 - 0.0 - - - - - - -
30/05:30pm 23.9 ESE 13 15 1020.3 - 0.0 - - - - - - -
30/05:00pm 24.4 ESE 13 15 1020.1 - 0.0 - - - - - - -
30/04:30pm 24.6 ESE 12 15 1019.9 - 0.0 - - - - - - -
30/04:00pm 25.1 ESE 12 14 1019.9 - 0.0 - - - - - - -
30/03:30pm 25.0 ESE 11 14 1019.9 - 0.0 - - - - - - -
30/03:00pm 25.8 ESE 12 15 1019.9 - 0.0 - - - - - - -
30/02:30pm 25.7 ESE 13 15 1019.9 - 0.0 - - - - - - -
30/02:00pm 26.3 ESE 13 15 1020.1 - 0.0 - - - - - - -
30/01:30pm 26.2 SE 12 15 1020.5 - 0.0 - - - - - - -
30/01:00pm 26.4 SE 11 15 1020.9 - 0.0 - - - - - - -
30/12:30pm 26.6 ESE 11 14 1021.2 - 0.0 - - - - - - -
30/12:00pm 27.4 E 11 14 1021.7 - 0.0 - - - - - - -
30/11:30am 27.1 E 12 14 1022.1 - 0.0 - - - - - - -
30/11:00am 26.8 ESE 13 15 1022.6 - 0.0 - - - - - - -
30/10:30am 27.0 ESE 13 16 1022.9 - 0.0 - - - - - - -
30/10:00am 26.9 E 15 17 1022.9 - 0.0 - - - - - - -
30/09:30am 26.0 E 14 17 1023.0 - 0.0 - - - - - - -
30/09:00am 25.7 E 15 18 1022.9 - 0.0 - - - - - - -
30/08:30am 25.1 E 15 17 1022.9 - 0.0 - - - - - - -
30/08:00am 24.1 E 14 16 1022.7 - 0.0 - - - - - - -
30/07:30am 25.4 E 13 17 1022.2 - 0.0 - - - - - - -
30/07:00am 24.1 E 16 20 1021.7 - 0.0 - - - - - - -
30/06:30am 23.7 E 16 20 1021.1 - 0.0 - - - - - - -
30/06:00am 23.0 E 16 19 1020.9 - 0.0 - - - - - - -
30/05:30am 23.1 E 18 21 1020.5 - 0.0 - - - - - - -
30/05:00am 23.0 E 16 19 1020.5 - 0.0 - - - - - - -
30/04:30am 23.1 E 17 21 1019.8 - 0.0 - - - - - - -
30/04:00am 23.0 E 18 21 1019.8 - 0.0 - - - - - - -
30/03:30am 23.2 E 17 20 1020.0 - 0.0 - - - - - - -
30/03:00am 23.2 E 17 22 1020.4 - 0.0 - - - - - - -
30/02:30am 23.2 E 16 20 1020.6 - 0.0 - - - - - - -
30/02:00am 23.1 E 18 21 1020.7 - 0.0 - - - - - - -
30/01:30am 23.0 E 16 21 1020.9 - 0.0 - - - - - - -
30/01:00am 23.1 E 17 20 1021.2 - 0.0 - - - - - - -
30/12:30am 23.0 E 16 19 1021.5 - 0.0 - - - - - - -
30/12:00am 23.1 E 17 20 1021.6 - 0.0 - - - - - - -
 
Date/Time
EST
Temp

°C
Wind Pressure Rain
since 9am
mm
Weather Cloud Vis
km
Sea
Height
m
Swell
Dir
 
Speed
knots
Gust
knots
hPa Trend Height
m
Period
s
Dir
29/11:30pm 23.1 E 18 22 1021.8 - 0.0 - - - - - - -
29/11:00pm 23.3 E 18 21 1021.7 - 0.0 - - - - - - -
29/10:30pm 23.2 E 19 23 1021.4 - 0.0 - - - - - - -
29/10:00pm 23.3 E 18 22 1021.7 - 0.0 - - - - - - -
29/09:30pm 23.3 E 16 20 1022.1 - 0.0 - - - - - - -
29/09:00pm 23.4 E 16 19 1022.2 - 0.0 - - - - - - -
29/08:30pm 23.4 E 16 19 1022.1 - 0.0 - - - - - - -
29/08:00pm 23.4 E 16 21 1021.8 - 0.0 - - - - - - -
29/07:30pm 23.6 ESE 17 20 1021.5 - 0.0 - - - - - - -
29/07:00pm 23.6 ESE 16 21 1021.4 - 0.0 - - - - - - -
29/06:30pm 23.7 ESE 17 20 1020.9 - 0.0 - - - - - - -
29/06:00pm 23.7 ESE 16 19 1020.7 - 0.0 - - - - - - -
29/05:30pm 23.9 ESE 15 18 1020.4 - 0.0 - - - - - - -
29/05:00pm 24.2 ESE 15 17 1020.4 - 0.0 - - - - - - -
29/04:30pm 24.3 ESE 14 18 1020.5 - 0.0 - - - - - - -
29/04:00pm 24.8 ESE 15 19 1020.3 - 0.0 - - - - - - -
29/03:30pm 25.1 ESE 15 18 1020.3 - 0.0 - - - - - - -
29/03:00pm 25.4 ESE 16 19 1020.2 - 0.0 - - - - - - -
29/02:30pm 25.7 ESE 15 18 1020.3 - 0.0 - - - - - - -
29/02:00pm 25.9 ESE 16 20 1020.5 - 0.0 - - - - - - -
29/01:30pm 25.9 ESE 17 20 1020.7 - 0.0 - - - - - - -
29/01:00pm 26.6 ESE 15 18 1021.1 - 0.0 - - - - - - -
29/12:30pm 26.5 ESE 16 19 1021.7 - 0.0 - - - - - - -
29/12:00pm 26.4 ESE 18 22 1021.7 - 0.0 - - - - - - -
29/11:30am 26.2 ESE 17 20 1022.1 - 0.0 - - - - - - -
29/11:00am 26.7 ESE 18 21 1022.4 - 0.0 - - - - - - -
29/10:30am 25.6 ESE 17 21 1022.5 - 0.0 - - - - - - -
29/10:00am 25.7 ESE 18 21 1022.5 - 0.0 - - - - - - -
29/09:30am 26.7 E 16 19 1022.5 - 0.0 - - - - - - -
29/09:00am 26.0 E 16 20 1022.4 - 0.2 - - - - - - -
29/08:30am 25.8 ESE 17 19 1022.2 - 0.2 - - - - - - -
29/08:00am 25.3 ESE 18 20 1021.8 - 0.2 - - - - - - -
29/07:30am 24.6 E 19 22 1021.1 - 0.2 - - - - - - -
29/07:00am 24.5 E 19 23 1020.6 - 0.2 - - - - - - -
29/06:30am 23.8 ESE 19 24 1020.3 - 0.2 - - - - - - -
29/06:00am 23.5 ESE 20 24 1019.9 - 0.2 - - - - - - -
29/05:30am 23.6 E 20 24 1019.5 - 0.2 - - - - - - -
29/05:00am 23.6 E 20 24 1019.1 - 0.2 - - - - - - -
29/04:30am 23.6 ESE 21 23 1018.8 - 0.2 - - - - - - -
29/04:00am 23.5 ESE 19 23 1018.5 - 0.2 - - - - - - -
29/03:30am 23.6 ESE 19 23 1018.6 - 0.2 - - - - - - -
29/03:00am 23.6 ESE 19 23 1018.8 - 0.2 - - - - - - -
29/02:30am 23.7 ESE 17 20 1018.9 - 0.2 - - - - - - -
29/02:00am 23.7 E 18 22 1018.9 - 0.2 - - - - - - -
29/01:30am 23.8 ESE 21 24 1018.7 - 0.2 - - - - - - -
29/01:00am 23.8 ESE 19 23 1019.1 - 0.2 - - - - - - -
29/12:30am 23.9 ESE 20 23 1019.2 - 0.2 - - - - - - -
29/12:00am 23.9 ESE 20 23 1019.5 - 0.2 - - - - - - -
 
Date/Time
EST
Temp

°C
Wind Pressure Rain
since 9am
mm
Weather Cloud Vis
km
Sea
Height
m
Swell
Dir
 
Speed
knots
Gust
knots
hPa Trend Height
m
Period
s
Dir
28/11:30pm 24.0 ESE 19 22 1019.8 - 0.2 - - - - - - -
28/11:00pm 24.2 ESE 18 22 1019.8 - 0.2 - - - - - - -
28/10:30pm 24.1 ESE 18 23 1019.9 - 0.2 - - - - - - -
28/10:00pm 24.2 ESE 20 23 1019.9 - 0.2 - - - - - - -
28/09:30pm 24.3 ESE 20 22 1019.8 - 0.2 - - - - - - -
28/09:00pm 24.3 ESE 19 22 1019.8 - 0.2 - - - - - - -
28/08:30pm 24.4 ESE 22 24 1019.5 - 0.2 - - - - - - -
28/08:00pm 24.3 ESE 19 22 1019.4 - 0.2 - - - - - - -

Other Formats:

Comma delimited format used in spreadsheet applications
http://www.bom.gov.au/fwo/IDQ60701/IDQ60701.94584.axf

JavaScript Object Notation format (JSON) in row-major order
http://www.bom.gov.au/fwo/IDQ60701/IDQ60701.94584.json